Latest Weather Observations for Evans Head

IDN60801

Issued at 10:35 pm EST Tuesday 29 July 2014 (issued every 30 minutes, with the page automatically refreshed every 10 minutes)

About weather observations | Map of weather stations | Latest weather observations for NSW | Other Formats
Station Details ID: 058212 Name: EVANS HEAD RAAF BOMBING RANGE AWS Lat: -29.18 Lon: 153.40 Height: 62.5 m
Data from the previous 72 hours. | See also: Recent months at Evans Head
Date/Time
EST
Temp
°C
App
Temp
°C
Dew
Point
Rel
Hum
%
Delta-T
°C
Wind Press
QNH
hPa
Press
MSL
hPa
Rain
since 9 am
mm
Dir
 
Spd
km/h
Gust
km/h
Spd
kts
Gust
kts
29/10:30pm 11.3 8.0 6.4 72 2.3 NNW 13 19 7 10 1020.9 - 0.0
29/10:00pm 11.1 8.3 6.8 75 2.0 N 11 17 6 9 1020.8 1020.8 0.0
29/09:30pm 11.7 8.2 7.2 74 2.2 N 15 20 8 11 1020.5 - 0.0
29/09:00pm 12.5 8.7 7.4 71 2.5 N 17 24 9 13 1020.2 1020.1 0.0
29/08:30pm 13.4 9.3 7.8 69 2.8 N 19 28 10 15 1020.1 - 0.0
29/08:00pm 12.7 9.0 8.0 73 2.3 N 17 20 9 11 1020.1 1020.0 0.0
29/07:30pm 12.6 9.5 8.7 77 2.0 N 15 20 8 11 1019.9 - 0.0
29/07:00pm 13.1 10.7 8.8 75 2.2 N 11 17 6 9 1019.6 1019.5 0.0
29/06:30pm 13.6 10.4 8.4 71 2.6 N 15 19 8 10 1019.3 - 0.0
29/06:00pm 14.7 11.9 8.4 66 3.2 NNE 13 17 7 9 1019.1 1019.0 0.0
29/05:30pm 15.0 12.5 8.3 64 3.4 NNE 11 15 6 8 1018.9 - 0.0
29/05:00pm 15.7 13.2 8.0 60 3.9 NNE 11 13 6 7 1018.8 1018.7 0.0
29/04:30pm 16.9 14.7 7.8 55 4.6 NNE 9 13 5 7 1018.9 - 0.0
29/04:00pm 17.6 14.8 6.8 49 5.4 ENE 11 15 6 8 1019.1 1019.0 0.0
29/03:30pm 18.2 15.3 6.4 46 5.9 E 11 15 6 8 1019.1 - 0.0
29/03:00pm 19.0 16.0 5.8 42 6.5 E 11 13 6 7 1019.0 1018.9 0.0
29/02:30pm 19.2 16.6 6.0 42 6.5 E 9 13 5 7 1019.2 - 0.0
29/02:00pm 19.1 16.2 6.6 44 6.3 SE 11 17 6 9 1019.4 1019.3 0.0
29/01:30pm 19.3 15.9 6.1 42 6.6 SSE 13 19 7 10 1019.7 - 0.0
29/01:00pm 19.9 17.0 4.8 37 7.3 S 9 17 5 9 1020.0 1019.9 0.0
29/12:30pm 19.5 17.2 4.8 38 7.1 SW 6 11 3 6 1020.3 - 0.0
29/12:00pm 19.4 16.9 4.7 38 7.1 WSW 7 15 4 8 1020.9 1020.9 0.0
29/11:30am 18.6 15.8 5.1 41 6.5 WSW 9 15 5 8 1021.5 - 0.0
29/11:00am 18.7 16.4 5.5 42 6.4 W 7 15 4 8 1022.0 1022.0 0.0
29/10:30am 17.5 14.3 5.1 44 6.0 W 11 15 6 8 1022.2 - 0.0
29/10:00am 16.5 13.7 5.2 47 5.4 WNW 9 17 5 9 1022.3 1022.3 0.0
29/09:30am 15.4 12.5 4.8 49 5.0 W 9 13 5 7 1022.4 - 0.0
29/09:00am 14.6 11.8 5.1 53 4.5 WNW 9 15 5 8 1022.3 1022.3 0.0
29/08:30am 13.6 11.3 5.7 59 3.7 NW 7 11 4 6 1022.1 - 0.0
29/08:00am 11.8 9.6 5.2 64 3.0 NNW 6 9 3 5 1022.0 1022.0 0.0
29/07:30am 10.5 7.0 3.5 62 3.1 WNW 11 13 6 7 1021.7 - 0.0
29/07:00am 10.4 6.7 2.5 58 3.4 WNW 11 13 6 7 1021.4 1021.4 0.0
29/06:30am 10.4 5.9 2.3 57 3.5 WNW 15 17 8 9 1021.1 - 0.0
29/06:00am 10.9 6.8 2.0 54 3.8 WNW 13 15 7 8 1020.7 1020.7 0.0
29/05:30am 10.7 6.6 2.3 56 3.6 WNW 13 15 7 8 1020.5 - 0.0
29/05:00am 11.2 7.5 2.5 55 3.7 W 11 15 6 8 1020.3 1020.3 0.0
29/04:30am 10.7 6.3 2.5 57 3.5 NW 15 20 8 11 1020.1 - 0.0
29/04:00am 11.2 7.1 2.5 55 3.7 WNW 13 17 7 9 1019.8 1019.7 0.0
29/03:30am 11.3 7.6 2.6 55 3.8 WNW 11 17 6 9 1019.8 - 0.0
29/03:00am 11.3 7.3 2.9 56 3.7 WNW 13 17 7 9 1019.6 1019.5 0.0
29/02:30am 11.4 7.5 3.4 58 3.5 WNW 13 17 7 9 1019.6 - 0.0
29/02:00am 9.9 6.3 3.0 62 3.0 NNW 11 15 6 8 1019.8 1019.7 0.0
29/01:30am 11.1 6.9 3.9 61 3.2 NNW 15 20 8 11 1020.0 - 0.0
29/01:00am 10.5 6.8 4.2 65 2.8 NNW 13 20 7 11 1020.1 1020.0 0.0
29/12:30am 10.8 7.5 4.7 66 2.8 NNW 11 13 6 7 1020.2 - 0.0
29/12:00am 10.5 7.4 5.7 72 2.2 N 11 15 6 8 1020.2 1020.1 0.0
 
Date/Time
EST
Temp
°C
App
Temp
°C
Dew
Point
Rel
Hum
%
Delta-T
°C
Wind Press
QNH
hPa
Press
MSL
hPa
Rain
since 9 am
mm
Dir
 
Spd
km/h
Gust
km/h
Spd
kts
Gust
kts
28/11:30pm 11.8 8.7 5.4 65 3.0 NW 11 17 6 9 1020.4 - 0.0
28/11:00pm 10.7 8.8 9.0 89 0.8 NNW 9 13 5 7 1020.4 1020.4 0.0
28/10:30pm 10.7 8.7 10.1 96 0.3 N 11 13 6 7 1020.6 - 0.0
28/10:00pm 11.4 9.6 10.9 97 0.3 N 11 15 6 8 1020.8 1020.8 0.0
28/09:30pm 11.6 9.5 11.0 96 0.3 N 13 17 7 9 1020.6 - 0.0
28/09:00pm 12.2 10.1 11.3 94 0.5 N 13 17 7 9 1020.8 1020.8 0.0
28/08:30pm 12.5 10.8 11.1 91 0.7 N 11 15 6 8 1020.9 - 0.0
28/08:00pm 13.1 11.2 10.5 84 1.4 N 11 13 6 7 1020.7 1020.7 0.0
28/07:30pm 14.0 11.6 11.3 84 1.4 N 15 20 8 11 1020.5 - 0.0
28/07:00pm 14.3 12.1 12.0 86 1.2 N 15 24 8 13 1020.3 1020.3 0.0
28/06:30pm 14.1 11.6 11.1 82 1.6 N 15 20 8 11 1020.1 - 0.0
28/06:00pm 15.0 12.9 11.0 77 2.1 N 13 17 7 9 1019.9 1019.8 0.0
28/05:30pm 15.8 13.7 11.2 74 2.5 N 13 20 7 11 1019.8 - 0.0
28/05:00pm 16.7 14.6 11.2 70 3.0 N 13 19 7 10 1019.8 1019.7 0.0
28/04:30pm 17.9 16.2 11.2 65 3.6 N 11 17 6 9 1019.8 - 0.0
28/04:00pm 19.1 17.1 11.4 61 4.2 N 13 20 7 11 1019.6 1019.5 0.0
28/03:30pm 20.2 18.3 11.9 59 4.6 N 13 24 7 13 1019.6 - 0.0
28/03:00pm 22.3 19.3 6.1 35 8.2 NNW 11 19 6 10 1019.6 1019.5 0.0
28/02:30pm 22.9 19.5 7.8 38 7.9 NNW 15 22 8 12 1019.7 - 0.0
28/02:00pm 22.5 19.8 7.5 38 7.8 NW 11 22 6 12 1020.0 1019.9 0.0
28/01:30pm 22.8 19.4 9.2 42 7.3 NW 17 28 9 15 1020.2 - 0.0
28/01:00pm 22.7 19.3 9.1 42 7.3 NNW 17 26 9 14 1020.6 1020.6 0.0
28/12:30pm 22.5 19.1 9.3 43 7.1 NNW 17 32 9 17 1021.3 - 0.0
28/12:00pm 21.8 18.9 9.7 46 6.5 NNW 15 24 8 13 1022.0 1022.0 0.0
28/11:30am 21.3 18.3 10.8 51 5.8 NNW 17 28 9 15 1022.7 - 0.0
28/11:00am 20.0 17.6 10.1 53 5.3 NW 13 28 7 15 1023.2 1023.2 0.0
28/10:30am 19.3 16.7 10.8 58 4.6 NW 15 26 8 14 1023.4 - 0.0
28/10:00am 18.3 15.3 9.4 56 4.7 NW 15 22 8 12 1023.4 1023.4 0.0
28/09:30am 17.7 15.3 8.8 56 4.6 NNW 11 20 6 11 1023.3 - 0.0
28/09:00am 17.2 16.1 10.8 66 3.4 NNW 7 17 4 9 1023.2 1023.2 0.0
28/08:30am 14.5 12.2 8.9 69 2.9 WNW 11 17 6 9 1023.3 - 0.0
28/08:00am 13.0 10.3 8.9 76 2.1 WNW 13 19 7 10 1023.3 1023.3 0.0
28/07:30am 11.4 8.8 9.3 87 1.1 WNW 13 19 7 10 1023.0 - 0.0
28/07:00am 8.8 6.3 8.4 97 0.2 NW 11 13 6 7 1022.7 1022.7 0.0
28/06:30am 7.8 5.1 7.4 97 0.2 NNW 11 13 6 7 1022.5 - 0.0
28/06:00am 7.7 5.0 7.3 97 0.2 NNW 11 13 6 7 1022.2 1022.2 0.0
28/05:30am 7.6 4.5 7.2 97 0.2 N 13 15 7 8 1022.3 - 0.0
28/05:00am 7.9 5.2 7.5 97 0.2 N 11 13 6 7 1022.2 1022.2 0.0
28/04:30am 8.2 5.4 7.1 93 0.5 N 11 13 6 7 1022.1 - 0.0
28/04:00am 10.0 7.5 6.7 80 1.5 NNW 9 11 5 6 1022.4 1022.4 0.0
28/03:30am 12.4 9.5 8.3 76 2.0 WNW 13 15 7 8 1022.5 - 0.0
28/03:00am 12.2 9.3 8.1 76 2.0 W 13 15 7 8 1022.6 1022.6 0.0
28/02:30am 12.1 9.1 7.8 75 2.1 WNW 13 15 7 8 1022.7 - 0.0
28/02:00am 11.9 8.9 7.8 76 2.0 WNW 13 17 7 9 1022.8 1022.8 0.0
28/01:30am 11.2 8.2 7.5 78 1.8 NW 13 15 7 8 1023.0 - 0.0
28/01:00am 12.6 9.8 8.5 76 2.0 WNW 13 15 7 8 1023.2 1023.2 0.0
28/12:30am 13.3 10.6 8.8 74 2.3 W 13 15 7 8 1023.2 - 0.0
28/12:00am 13.8 11.9 9.0 73 2.4 W 9 11 5 6 1023.2 1023.2 0.0
 
Date/Time
EST
Temp
°C
App
Temp
°C
Dew
Point
Rel
Hum
%
Delta-T
°C
Wind Press
QNH
hPa
Press
MSL
hPa
Rain
since 9 am
mm
Dir
 
Spd
km/h
Gust
km/h
Spd
kts
Gust
kts
27/11:30pm 13.6 11.4 9.3 75 2.2 W 11 13 6 7 1023.4 - 0.0
27/11:00pm 13.3 11.3 8.8 74 2.3 WSW 9 11 5 6 1023.4 1023.4 0.0
27/10:30pm 14.3 12.3 8.7 69 2.8 SSW 9 13 5 7 1023.6 - 0.0
27/10:00pm 14.3 12.7 8.9 70 2.7 SSW 7 13 4 7 1023.7 1023.7 0.0
27/09:30pm 14.9 12.0 9.5 70 2.8 SSE 15 19 8 10 1023.7 - 0.0
27/09:00pm 15.0 12.1 9.6 70 2.8 SSE 15 19 8 10 1023.8 1023.8 0.0
27/08:30pm 15.5 12.6 9.6 68 3.1 SE 15 22 8 12 1023.8 - 0.0
27/08:00pm 15.5 12.0 8.7 64 3.5 SSE 17 22 9 12 1023.6 1023.6 0.0
27/07:30pm 15.6 11.9 8.1 61 3.8 SE 17 20 9 11 1023.4 - 0.0
27/07:00pm 15.8 11.6 7.6 58 4.1 SE 19 24 10 13 1023.2 1023.2 0.0
27/06:30pm 15.8 11.4 6.5 54 4.5 SE 19 26 10 14 1023.0 - 0.0
27/06:00pm 15.5 11.7 7.5 59 4.0 SE 17 24 9 13 1022.8 1022.8 0.0
27/05:30pm 15.1 11.2 6.9 58 4.0 SSE 17 20 9 11 1022.5 - 0.0
27/05:00pm 14.9 11.9 7.7 62 3.6 SSE 13 17 7 9 1022.3 1022.3 0.0
27/04:30pm 16.1 13.1 7.8 58 4.2 SSE 13 17 7 9 1022.1 - 0.0
27/04:00pm 16.9 14.4 8.1 56 4.5 SSE 11 17 6 9 1021.9 1021.9 0.0
27/03:30pm 17.4 14.5 8.0 54 4.8 SSE 13 20 7 11 1021.6 - 0.0
27/03:00pm 18.1 15.0 8.9 55 4.8 SSE 15 20 8 11 1021.4 1021.4 0.0
27/02:30pm 18.5 14.9 8.2 51 5.3 S 17 24 9 13 1021.4 - 0.0
27/02:00pm 18.5 14.5 8.2 51 5.3 SSE 19 26 10 14 1021.6 1021.6 0.0
27/01:30pm 19.0 15.2 8.9 52 5.3 S 19 24 10 13 1021.7 - 0.0
27/01:00pm 19.3 15.5 8.9 51 5.4 SSE 19 24 10 13 1021.8 1021.8 0.0
27/12:30pm 19.0 15.1 8.6 51 5.4 SSE 19 24 10 13 1022.1 - 0.0
27/12:00pm 19.0 15.0 8.4 50 5.5 S 19 24 10 13 1022.7 1022.7 0.0
27/11:30am 18.5 14.7 7.6 49 5.6 S 17 28 9 15 1023.3 - 0.0
27/11:00am 18.9 14.8 7.7 48 5.7 S 19 28 10 15 1023.8 1023.8 0.0
27/10:30am 18.3 14.5 7.7 50 5.4 SSW 17 24 9 13 1024.1 - 0.0
27/10:00am 18.0 14.9 8.8 55 4.8 SSW 15 26 8 14 1024.2 1024.2 0.0
27/09:30am 16.9 14.4 9.6 62 3.8 WSW 13 20 7 11 1024.2 - 0.0
27/09:00am 15.7 12.8 9.6 67 3.2 SW 15 22 8 12 1023.9 1023.9 0.0
27/08:30am 14.5 11.1 9.3 71 2.7 WSW 17 24 9 13 1023.7 - 0.0
27/08:00am 13.6 10.3 9.6 77 2.0 WSW 17 22 9 12 1023.6 1023.6 0.0
27/07:30am 12.6 9.6 10.5 87 1.1 WSW 17 22 9 12 1023.5 - 0.0
27/07:00am 12.7 10.1 10.8 88 1.0 WSW 15 20 8 11 1023.2 1023.2 0.0
27/06:30am 12.6 10.3 11.7 94 0.5 WSW 15 19 8 10 1022.9 - 0.0
27/06:00am 12.4 10.5 11.9 97 0.3 WSW 13 17 7 9 1022.5 1022.5 0.0
27/05:30am 12.6 11.2 12.1 97 0.3 W 11 13 6 7 1022.3 - 0.0
27/05:00am 12.8 11.1 12.3 97 0.3 W 13 15 7 8 1022.0 1022.0 0.0
27/04:30am 13.7 12.9 12.9 95 0.4 W 9 11 5 6 1022.0 - 0.0
27/04:00am 13.5 14.0 12.9 96 0.3 SW 2 9 1 5 1021.9 1021.9 0.0
27/03:30am 13.6 12.5 13.1 97 0.3 WNW 11 15 6 8 1021.8 - 0.0
27/03:00am 13.8 12.9 12.5 92 0.7 WNW 9 11 5 6 1022.1 1022.1 0.0
27/02:30am 14.7 14.0 13.1 90 0.9 W 9 13 5 7 1022.4 - 0.0
27/02:00am 14.7 13.0 12.4 86 1.3 WSW 13 15 7 8 1022.4 1022.4 0.0
27/01:30am 15.0 12.8 12.1 83 1.6 SSW 15 22 8 12 1022.3 - 0.0
27/01:00am 16.0 13.5 12.2 78 2.1 NW 17 30 9 16 1022.4 1022.4 0.0
27/12:30am 15.6 13.4 12.2 80 1.9 NW 15 20 8 11 1022.6 - 0.0
27/12:00am 15.9 14.0 11.9 77 2.2 NW 13 20 7 11 1022.5 1022.5 0.0
 
Date/Time
EST
Temp
°C
App
Temp
°C
Dew
Point
Rel
Hum
%
Delta-T
°C
Wind Press
QNH
hPa
Press
MSL
hPa
Rain
since 9 am
mm
Dir
 
Spd
km/h
Gust
km/h
Spd
kts
Gust
kts
26/11:30pm 16.2 14.4 12.0 76 2.3 NW 13 20 7 11 1022.5 - 0.0
26/11:00pm 16.1 14.0 12.3 78 2.1 NNW 15 26 8 14 1022.7 1022.7 0.0

Other Formats:

Comma delimited format used in spreadsheet applications
http://www.bom.gov.au/fwo/IDN60801/IDN60801.94598.axf

JavaScript Object Notation format (JSON) in row-major order
http://www.bom.gov.au/fwo/IDN60801/IDN60801.94598.json